Time;durP1;ratioP1;P1;durP2;ratioP2;P2;SDS_P1;SDS_P2;PMS_P1;PMS_P2;Temp;Humidity;BMP_temperature;BMP_pressure;BME280_temperature;BME280_humidity;BME280_pressure;Samples;Min_cycle;Max_cycle;Signal;HPM_P1;HPM_P2
2021/10/15 00:01:04;;;;;;;22.23;8.73;;;;;;;12.82;100.00;101738.41;4950680;28;20475;-73
2021/10/15 00:03:32;;;;;;;19.90;9.80;;;;;;;12.81;100.00;101734.84;4949797;28;20051;-73
2021/10/15 00:06:00;;;;;;;20.08;10.10;;;;;;;12.81;100.00;101728.63;4951162;28;20058;-73
2021/10/15 00:08:28;;;;;;;18.88;9.10;;;;;;;12.78;100.00;101724.22;4952867;28;20771;-72
2021/10/15 00:10:56;;;;;;;19.85;8.43;;;;;;;12.77;100.00;101729.59;4947916;28;20133;-73
2021/10/15 00:13:24;;;;;;;17.63;9.13;;;;;;;12.78;100.00;101710.81;4947311;28;20499;-73
2021/10/15 00:15:51;;;;;;;18.33;8.82;;;;;;;12.80;100.00;101710.78;4954070;28;20084;-73
2021/10/15 00:18:21;;;;;;;16.10;8.95;;;;;;;12.78;100.00;101710.81;4950914;28;20076;-72
2021/10/15 00:20:48;;;;;;;18.30;8.75;;;;;;;12.80;100.00;101716.13;4950238;28;20130;-73
2021/10/15 00:23:16;;;;;;;18.02;9.18;;;;;;;12.78;100.00;101705.47;4950386;28;20059;-73
2021/10/15 00:25:44;;;;;;;19.75;8.68;;;;;;;12.75;100.00;101721.59;4952371;28;20058;-72
2021/10/15 00:28:13;;;;;;;22.42;9.23;;;;;;;12.78;100.00;101708.16;4947981;28;20073;-72
2021/10/15 00:30:42;;;;;;;19.67;9.85;;;;;;;12.78;100.00;101708.16;4948487;28;20086;-72
2021/10/15 00:33:10;;;;;;;17.70;8.63;;;;;;;12.73;100.00;101706.53;4947257;28;20079;-72
2021/10/15 00:35:39;;;;;;;16.88;8.35;;;;;;;12.70;100.00;101694.97;4946454;28;20059;-72
2021/10/15 00:38:07;;;;;;;15.88;8.50;;;;;;;12.74;100.00;101687.75;4951222;28;20062;-72
2021/10/15 00:41:00;;;;;;;17.00;8.88;;;;;;;12.73;100.00;101679.75;4950673;28;20050;-73
2021/10/15 00:43:28;;;;;;;23.33;9.18;;;;;;;12.72;100.00;101681.56;4948137;28;20252;-72
2021/10/15 00:45:56;;;;;;;19.65;8.52;;;;;;;12.76;100.00;101679.66;4956579;28;20150;-73
2021/10/15 00:48:24;;;;;;;18.80;8.15;;;;;;;12.80;100.00;101678.66;4948922;28;20820;-72
2021/10/15 00:50:53;;;;;;;16.27;8.32;;;;;;;12.76;100.00;101675.19;4948039;28;20141;-75
2021/10/15 00:53:21;;;;;;;22.70;8.32;;;;;;;12.77;100.00;101666.25;4941784;28;20917;-75
2021/10/15 00:55:49;;;;;;;18.30;8.43;;;;;;;12.75;100.00;101673.41;4950988;28;20169;-75
2021/10/15 00:58:17;;;;;;;20.35;9.02;;;;;;;12.74;100.00;101660.97;4947480;28;20077;-77
2021/10/15 01:00:45;;;;;;;16.50;8.05;;;;;;;12.78;100.00;101669.78;4946487;28;20146;-77
2021/10/15 01:03:13;;;;;;;19.50;9.02;;;;;;;12.76;100.00;101658.25;4949048;28;21802;-76
2021/10/15 01:05:41;;;;;;;20.65;8.68;;;;;;;12.79;100.00;101651.00;4948064;28;20071;-76
2021/10/15 01:08:11;;;;;;;21.92;10.48;;;;;;;12.80;100.00;101644.69;4947845;28;20147;-76
2021/10/15 01:10:39;;;;;;;18.23;8.95;;;;;;;12.78;100.00;101643.88;4951723;28;20050;-74
2021/10/15 01:13:08;;;;;;;17.77;8.07;;;;;;;12.78;100.00;101643.88;4946936;28;20146;-76
2021/10/15 01:15:36;;;;;;;18.77;8.63;;;;;;;12.78;100.00;101637.66;4949872;28;20126;-76
2021/10/15 01:18:11;;;;;;;16.90;8.98;;;;;;;12.79;100.00;101645.63;4947321;28;20051;-77
2021/10/15 01:20:41;;;;;;;19.15;8.90;;;;;;;12.79;100.00;101645.63;4948456;28;20134;-77
2021/10/15 01:23:09;;;;;;;17.75;9.05;;;;;;;12.81;100.00;101640.25;4949816;28;21058;-77
2021/10/15 01:25:37;;;;;;;20.45;9.10;;;;;;;12.78;100.00;101635.84;4948866;28;20133;-75
2021/10/15 01:28:06;;;;;;;21.92;9.43;;;;;;;12.79;100.00;101634.94;4950609;28;20133;-76
2021/10/15 01:30:34;;;;;;;17.85;8.88;;;;;;;12.81;100.00;101634.88;4953965;28;20060;-76
2021/10/15 01:33:01;;;;;;;20.05;9.23;;;;;;;12.79;100.00;101628.69;4948714;28;20167;-75
2021/10/15 01:35:29;;;;;;;20.70;9.25;;;;;;;12.79;100.00;101626.03;4949894;28;20141;-77
2021/10/15 01:37:59;;;;;;;19.92;9.30;;;;;;;12.82;100.00;101618.78;4948245;28;20043;-76
2021/10/15 01:40:26;;;;;;;20.85;9.57;;;;;;;12.80;100.00;101623.28;4949362;28;20385;-77
2021/10/15 01:42:54;;;;;;;20.73;9.23;;;;;;;12.80;100.00;101617.91;4945574;28;20082;-74
2021/10/15 01:45:23;;;;;;;21.90;9.35;;;;;;;12.80;100.00;101617.06;4954412;28;20090;-75
2021/10/15 01:47:50;;;;;;;20.60;9.93;;;;;;;12.79;100.00;101613.50;4946930;28;20055;-72
2021/10/15 01:50:19;;;;;;;20.65;9.88;;;;;;;12.75;100.00;101605.59;4948614;28;20220;-72
2021/10/15 01:52:47;;;;;;;18.98;9.25;;;;;;;12.78;100.00;101610.88;4945699;28;20542;-72
2021/10/15 01:55:17;;;;;;;20.65;10.05;;;;;;;12.77;100.00;101607.31;4947049;28;20440;-72
2021/10/15 01:57:45;;;;;;;20.92;9.00;;;;;;;12.75;100.00;101610.94;4949077;28;20082;-71
2021/10/15 02:00:14;;;;;;;19.95;9.52;;;;;;;12.74;100.00;101606.53;4945685;28;20050;-72
2021/10/15 02:03:07;;;;;;;20.13;9.63;;;;;;;12.71;100.00;101607.50;4949179;28;20049;-72
2021/10/15 02:05:59;;;;;;;19.25;9.15;;;;;;;12.70;100.00;101603.94;4946668;28;20112;-72
2021/10/15 02:08:27;;;;;;;22.60;9.73;;;;;;;12.70;100.00;101585.19;4948816;28;20062;-72
2021/10/15 02:10:56;;;;;;;22.27;9.90;;;;;;;12.72;100.00;101587.84;4944485;28;20508;-73
2021/10/15 02:13:24;;;;;;;16.83;9.18;;;;;;;12.71;100.00;101578.91;4950697;28;20117;-72
2021/10/15 02:15:52;;;;;;;23.50;9.63;;;;;;;12.70;100.00;101581.63;4948898;28;20051;-73
2021/10/15 02:18:21;;;;;;;17.58;8.85;;;;;;;12.69;100.00;101577.22;4945154;28;20082;-73
2021/10/15 02:20:49;;;;;;;25.25;9.88;;;;;;;12.71;100.00;101575.34;4944800;28;20047;-73
2021/10/15 02:23:17;;;;;;;20.60;8.98;;;;;;;12.73;100.00;101573.50;4951032;28;20101;-73
2021/10/15 02:25:45;;;;;;;21.25;9.75;;;;;;;12.71;100.00;101570.88;4948345;28;20064;-72
2021/10/15 02:28:15;;;;;;;19.98;9.45;;;;;;;12.69;100.00;101570.03;4945707;28;20268;-72
2021/10/15 02:30:43;;;;;;;17.13;9.65;;;;;;;12.69;100.00;101562.00;4947281;28;20059;-72
2021/10/15 02:33:13;;;;;;;21.30;10.32;;;;;;;12.70;100.00;101561.09;4941821;28;20051;-72
2021/10/15 02:35:40;;;;;;;17.83;8.73;;;;;;;12.77;100.00;101552.88;4951721;28;20073;-72
2021/10/15 02:38:08;;;;;;;19.13;9.25;;;;;;;12.77;100.00;101558.22;4948314;28;20255;-72
2021/10/15 02:40:36;;;;;;;20.55;9.75;;;;;;;12.74;100.00;101563.69;4944936;28;20495;-72
2021/10/15 02:43:04;;;;;;;17.35;9.25;;;;;;;12.73;100.00;101561.91;4947649;28;20125;-72
2021/10/15 02:45:57;;;;;;;21.58;9.85;;;;;;;12.77;100.00;101547.50;4942620;28;20084;-72
2021/10/15 02:48:24;;;;;;;23.08;9.52;;;;;;;12.76;100.00;101552.00;4951114;28;20214;-72
2021/10/15 02:50:52;;;;;;;22.40;9.95;;;;;;;12.73;100.00;101556.56;4946315;28;20061;-74
2021/10/15 02:53:20;;;;;;;18.70;8.90;;;;;;;12.69;100.00;101562.00;4943934;28;20185;-72
2021/10/15 02:55:48;;;;;;;18.02;9.20;;;;;;;12.68;100.00;101557.59;4949025;28;20149;-72
2021/10/15 02:58:16;;;;;;;16.92;9.65;;;;;;;12.67;100.00;101558.50;4950176;28;20121;-72
2021/10/15 03:01:09;;;;;;;17.48;8.15;;;;;;;12.65;100.00;101554.09;4947993;28;20129;-72
2021/10/15 03:03:37;;;;;;;20.30;8.57;;;;;;;12.66;100.00;101546.03;4943998;28;20771;-72
2021/10/15 03:06:05;;;;;;;18.30;8.57;;;;;;;12.60;100.00;101542.66;4949949;28;20077;-72
2021/10/15 03:08:33;;;;;;;16.83;7.78;;;;;;;12.62;100.00;101528.31;4949684;28;20063;-72
2021/10/15 03:11:05;;;;;;;19.73;7.40;;;;;;;12.63;100.00;101531.84;4943510;28;20050;-72
2021/10/15 03:13:32;;;;;;;16.67;7.28;;;;;;;12.63;100.00;101532.75;4950026;28;20086;-72
2021/10/15 03:16:03;;;;;;;13.77;5.95;;;;;;;12.91;100.00;101537.28;4948682;28;20051;-72
2021/10/15 03:18:32;;;;;;;11.85;5.10;;;;;;;13.07;100.00;101530.50;4947695;28;20067;-71
2021/10/15 03:21:24;;;;;;;16.63;5.70;;;;;;;13.08;100.00;101532.25;4947136;28;20054;-72
2021/10/15 03:23:52;;;;;;;9.90;4.97;;;;;;;13.22;98.65;101529.13;4946380;28;20082;-71
2021/10/15 03:26:22;;;;;;;12.30;5.30;;;;;;;13.22;98.82;101530.94;4950058;28;20055;-74
2021/10/15 03:28:50;;;;;;;14.98;5.22;;;;;;;13.19;99.12;101531.91;4949278;28;20082;-73
2021/10/15 03:31:18;;;;;;;15.43;6.03;;;;;;;13.15;99.00;101518.69;4948282;28;20070;-73
2021/10/15 03:33:47;;;;;;;10.88;4.80;;;;;;;13.17;99.28;101527.53;4952093;28;20055;-72
2021/10/15 03:36:15;;;;;;;15.82;5.30;;;;;;;13.17;98.72;101519.50;4948694;28;20468;-73
2021/10/15 03:38:42;;;;;;;10.52;4.35;;;;;;;13.20;98.40;101533.66;4946959;28;20153;-73
2021/10/15 03:41:10;;;;;;;13.60;5.18;;;;;;;13.21;98.62;101521.13;4952881;28;20447;-76
2021/10/15 03:43:39;;;;;;;11.32;4.78;;;;;;;13.24;98.39;101526.41;4950136;28;20101;-75
2021/10/15 03:46:07;;;;;;;10.80;4.25;;;;;;;13.25;96.80;101529.03;4951894;28;20176;-75
2021/10/15 03:48:35;;;;;;;8.75;4.43;;;;;;;13.35;96.20;101516.25;4950080;28;20058;-76
2021/10/15 03:51:04;;;;;;;14.13;4.30;;;;;;;13.35;96.24;101526.97;4951882;28;20074;-76
2021/10/15 03:53:32;;;;;;;13.23;4.32;;;;;;;13.34;96.55;101527.03;4944825;28;20059;-74
2021/10/15 03:56:00;;;;;;;9.65;4.25;;;;;;;13.41;95.53;101528.56;4952114;28;20043;-73
2021/10/15 03:58:28;;;;;;;16.13;4.82;;;;;;;13.42;95.18;101523.16;4948006;28;20244;-76
2021/10/15 04:00:55;;;;;;;14.73;4.65;;;;;;;13.48;94.58;101523.88;4948434;28;20157;-76
2021/10/15 04:03:24;;;;;;;12.77;4.57;;;;;;;13.43;95.23;101524.03;4950872;28;20078;-76
2021/10/15 04:05:58;;;;;;;8.70;4.00;;;;;;;13.40;95.11;101529.47;4952836;28;20050;-75
2021/10/15 04:08:28;;;;;;;12.68;4.47;;;;;;;13.50;96.20;101527.38;4947653;28;20130;-75
2021/10/15 04:10:55;;;;;;;12.43;4.95;;;;;;;13.40;96.98;101519.66;4954347;28;20149;-75
2021/10/15 04:13:23;;;;;;;14.95;5.07;;;;;;;13.41;97.00;101524.06;4947672;28;20066;-76
2021/10/15 04:15:51;;;;;;;10.40;4.60;;;;;;;13.39;97.01;101517.91;4950369;28;20145;-73
2021/10/15 04:18:19;;;;;;;12.77;4.85;;;;;;;13.38;97.15;101520.63;4950274;28;20051;-73
2021/10/15 04:20:47;;;;;;;11.00;4.43;;;;;;;13.38;97.01;101523.31;4953413;28;20059;-74
2021/10/15 04:23:14;;;;;;;12.63;4.35;;;;;;;13.36;97.24;101514.44;4947945;28;20061;-75
2021/10/15 04:25:44;;;;;;;13.57;4.75;;;;;;;13.34;97.81;101521.66;4949509;28;20067;-74
2021/10/15 04:28:12;;;;;;;11.48;4.65;;;;;;;13.34;97.77;101516.31;4947016;28;20589;-74
2021/10/15 04:30:40;;;;;;;15.43;5.05;;;;;;;13.34;97.53;101510.94;4948632;28;20117;-76
2021/10/15 04:33:08;;;;;;;15.52;4.85;;;;;;;13.39;97.59;101517.91;4953780;28;20464;-74
2021/10/15 04:35:40;;;;;;;15.88;4.68;;;;;;;13.40;96.96;101516.97;4950401;28;20137;-74
2021/10/15 04:38:08;;;;;;;13.13;4.63;;;;;;;13.47;95.23;101512.28;4949161;28;20050;-74
2021/10/15 04:41:01;;;;;;;12.05;4.50;;;;;;;13.34;96.29;101519.84;4953462;28;20662;-74
2021/10/15 04:43:31;;;;;;;11.70;4.53;;;;;;;13.43;95.48;101516.88;4946132;28;20238;-74
2021/10/15 04:45:59;;;;;;;11.35;4.78;;;;;;;13.44;94.99;101515.94;4947134;28;20054;-74
2021/10/15 04:48:27;;;;;;;10.55;4.40;;;;;;;13.41;95.65;101513.34;4946792;28;20157;-74
2021/10/15 04:50:55;;;;;;;15.13;4.97;;;;;;;13.38;95.21;101518.84;4951508;28;20191;-74
2021/10/15 04:53:24;;;;;;;11.25;4.25;;;;;;;13.37;95.56;101513.53;4949906;28;20166;-74
2021/10/15 04:55:52;;;;;;;11.63;4.63;;;;;;;13.35;96.27;101518.03;4953314;28;20082;-71
2021/10/15 04:58:21;;;;;;;14.68;4.75;;;;;;;13.37;95.61;101518.88;4947154;28;20054;-71
2021/10/15 05:00:49;;;;;;;10.88;4.53;;;;;;;13.39;96.41;101515.22;4948744;28;20378;-71
2021/10/15 05:03:17;;;;;;;15.38;4.68;;;;;;;13.29;96.55;101513.72;4947647;28;20491;-71
2021/10/15 05:05:45;;;;;;;16.45;5.32;;;;;;;13.33;96.16;101501.13;4950576;28;20129;-71
2021/10/15 05:08:15;;;;;;;13.48;4.70;;;;;;;13.33;96.44;101510.06;4950996;28;20105;-71
2021/10/15 05:10:45;;;;;;;13.05;4.90;;;;;;;13.29;97.05;101508.38;4949404;28;20055;-71
2021/10/15 05:13:14;;;;;;;14.13;4.80;;;;;;;13.37;95.94;101508.16;4944425;28;20127;-71
2021/10/15 05:15:45;;;;;;;15.02;5.15;;;;;;;13.34;96.42;101505.59;4949622;28;20047;-71
2021/10/15 05:18:13;;;;;;;11.85;4.53;;;;;;;13.31;96.03;101509.19;4948342;28;20154;-71
2021/10/15 05:20:42;;;;;;;9.15;4.30;;;;;;;13.36;96.41;101509.09;4947079;28;20142;-74
2021/10/15 05:23:11;;;;;;;15.68;4.60;;;;;;;13.37;96.06;101516.22;4949648;28;20507;-72
2021/10/15 05:25:39;;;;;;;12.10;4.28;;;;;;;13.39;95.75;101511.66;4952317;28;20547;-72
2021/10/15 05:28:07;;;;;;;11.18;4.40;;;;;;;13.44;94.67;101504.34;4947520;28;20461;-74
2021/10/15 05:30:35;;;;;;;12.32;5.10;;;;;;;13.43;95.03;101507.94;4947040;28;20746;-73
2021/10/15 05:33:04;;;;;;;8.07;4.32;;;;;;;13.44;95.22;101505.22;4947067;28;20162;-73
2021/10/15 05:35:32;;;;;;;12.15;4.60;;;;;;;13.44;95.29;101504.34;4945818;28;20456;-74
2021/10/15 05:38:00;;;;;;;15.50;4.75;;;;;;;13.45;94.85;101514.16;4947731;28;20052;-73
2021/10/15 05:40:28;;;;;;;12.98;4.80;;;;;;;13.38;96.52;101523.31;4953787;28;20196;-72
2021/10/15 05:42:55;;;;;;;14.48;4.70;;;;;;;13.11;100.00;101528.63;4948114;28;20051;-71
2021/10/15 05:45:25;;;;;;;8.35;4.13;;;;;;;12.92;100.00;101525.59;4949331;28;20138;-72
2021/10/15 05:48:19;;;;;;;9.52;4.15;;;;;;;12.74;100.00;101527.06;4945198;28;20101;-72
2021/10/15 05:50:49;;;;;;;16.17;4.50;;;;;;;12.63;100.00;101530.06;4949791;28;20063;-72
2021/10/15 05:53:19;;;;;;;12.05;4.10;;;;;;;12.64;100.00;101529.13;4946029;28;20133;-72
2021/10/15 05:56:01;;;;;;;12.55;4.90;;;;;;;12.64;100.00;101521.09;4948349;28;20077;-72
2021/10/15 06:01:22;;;;;;;13.98;5.13;;;;;;;12.57;100.00;101524.91;4944839;28;20379;-73
2021/10/15 06:03:59;;;;;;;12.88;5.07;;;;;;;12.54;100.00;101530.34;4949366;28;20054;-74
2021/10/15 06:14:43;;;;;;;15.45;6.13;;;;;;;12.49;100.00;101545.66;4949224;28;20490;-70
2021/10/15 06:17:12;;;;;;;10.68;5.82;;;;;;;12.45;100.00;101557.38;4946342;28;20051;-71
2021/10/15 06:19:48;;;;;;;9.25;5.00;;;;;;;12.41;100.00;101569.06;4947179;28;20054;-71
2021/10/15 06:22:16;;;;;;;8.40;3.53;;;;;;;12.21;100.00;101585.66;4949659;28;20439;-72
2021/10/15 06:25:34;;;;;;;4.72;1.92;;;;;;;11.80;100.00;101595.63;4951772;28;20289;-71
2021/10/15 06:28:02;;;;;;;3.67;1.35;;;;;;;11.58;100.00;101586.34;4948354;28;20171;-71
2021/10/15 06:30:31;;;;;;;2.38;1.23;;;;;;;11.50;100.00;101603.50;4948987;28;20055;-70
2021/10/15 06:32:59;;;;;;;3.92;1.20;;;;;;;11.38;100.00;101605.53;4946494;28;20061;-72
2021/10/15 06:38:21;;;;;;;2.15;1.10;;;;;;;11.30;100.00;101625.31;4946564;28;20058;-71
2021/10/15 06:40:49;;;;;;;3.78;1.35;;;;;;;11.28;100.00;101629.81;4945275;28;20047;-70
2021/10/15 06:43:17;;;;;;;3.55;1.23;;;;;;;11.23;100.00;101634.41;4943714;28;20207;-70
2021/10/15 06:45:44;;;;;;;5.30;1.65;;;;;;;11.15;100.00;101646.13;4945729;28;20047;-71
2021/10/15 06:48:12;;;;;;;8.07;1.52;;;;;;;11.10;100.00;101645.34;4942325;28;20250;-71
2021/10/15 06:50:42;;;;;;;4.47;1.38;;;;;;;11.09;100.00;101646.25;4945074;28;20060;-70
2021/10/15 06:53:11;;;;;;;7.93;1.80;;;;;;;11.06;100.00;101667.69;4940660;28;20057;-68
2021/10/15 06:55:39;;;;;;;8.15;1.67;;;;;;;11.01;100.00;101666.91;4943518;28;20276;-70
2021/10/15 06:58:07;;;;;;;5.72;1.70;;;;;;;11.00;100.00;101670.50;4943813;28;20121;-70
2021/10/15 07:00:59;;;;;;;5.38;1.60;;;;;;;10.96;100.00;101677.66;4942208;28;20178;-70
2021/10/15 07:03:28;;;;;;;9.00;1.70;;;;;;;10.92;100.00;101681.31;4945793;28;20054;-72
2021/10/15 07:05:57;;;;;;;6.30;1.67;;;;;;;10.93;100.00;101683.09;4948211;28;20143;-74
2021/10/15 07:08:28;;;;;;;4.67;1.47;;;;;;;10.92;100.00;101684.00;4947140;28;20169;-72
2021/10/15 07:10:58;;;;;;;9.27;1.90;;;;;;;10.88;100.00;101692.09;4942181;28;20484;-73
2021/10/15 07:13:26;;;;;;;7.88;1.70;;;;;;;10.85;100.00;101690.38;4943390;28;20054;-73
2021/10/15 07:15:53;;;;;;;8.50;1.88;;;;;;;10.86;100.00;101692.09;4944756;28;20138;-73
2021/10/15 07:18:23;;;;;;;7.53;1.80;;;;;;;10.90;100.00;101699.16;4946881;28;20061;-72
2021/10/15 07:20:52;;;;;;;7.78;2.00;;;;;;;10.86;100.00;101700.13;4951780;28;20070;-73
2021/10/15 07:23:21;;;;;;;8.20;2.10;;;;;;;10.87;100.00;101719.72;4947165;28;20086;-73
2021/10/15 07:25:49;;;;;;;13.68;2.28;;;;;;;10.87;100.00;101725.06;4944920;28;20055;-74
2021/10/15 07:28:17;;;;;;;11.02;2.03;;;;;;;10.85;100.00;101727.75;4945454;28;20535;-73
2021/10/15 07:30:46;;;;;;;7.82;2.00;;;;;;;10.84;100.00;101724.22;4942768;28;20059;-73
2021/10/15 07:33:14;;;;;;;5.72;1.90;;;;;;;10.90;100.00;101725.88;4946302;28;20082;-74
2021/10/15 07:36:08;;;;;;;6.25;1.55;;;;;;;10.86;100.00;101736.63;4941546;28;20055;-74
2021/10/15 07:38:38;;;;;;;9.18;2.40;;;;;;;10.87;100.00;101736.59;4948182;28;20051;-74
2021/10/15 07:41:07;;;;;;;8.55;1.90;;;;;;;10.92;100.00;101741.88;4947407;28;20066;-74
2021/10/15 07:43:36;;;;;;;11.55;2.22;;;;;;;10.89;100.00;101745.47;4944302;28;20050;-74
2021/10/15 07:46:06;;;;;;;9.52;1.92;;;;;;;10.94;100.00;101745.38;4944853;28;20154;-74
2021/10/15 07:48:34;;;;;;;10.07;3.40;;;;;;;10.96;100.00;101746.22;4944006;28;20051;-74
2021/10/15 07:51:02;;;;;;;9.75;2.28;;;;;;;10.98;100.00;101757.75;4943565;28;20054;-74
2021/10/15 07:53:33;;;;;;;9.35;2.38;;;;;;;10.96;100.00;101762.25;4940250;28;20050;-75
2021/10/15 07:56:02;;;;;;;5.82;1.88;;;;;;;10.98;100.00;101765.75;4947116;28;20125;-74
2021/10/15 07:58:55;;;;;;;8.00;1.95;;;;;;;10.90;100.00;101770.38;4944689;28;20139;-73
2021/10/15 08:01:23;;;;;;;13.85;2.40;;;;;;;10.88;100.00;101774.84;4944432;28;20134;-74
2021/10/15 08:04:15;;;;;;;8.95;2.40;;;;;;;10.94;100.00;101777.41;4946919;28;20070;-74
2021/10/15 08:06:50;;;;;;;11.27;2.42;;;;;;;11.01;100.00;101784.41;4943114;28;20062;-73
2021/10/15 08:09:17;;;;;;;6.28;1.88;;;;;;;11.03;100.00;101785.25;4943157;28;20051;-74
2021/10/15 08:11:48;;;;;;;10.80;2.38;;;;;;;11.10;100.00;101788.69;4942926;28;20145;-74
2021/10/15 08:14:20;;;;;;;11.25;2.50;;;;;;;11.18;100.00;101779.59;4948251;28;20059;-74
2021/10/15 08:16:48;;;;;;;9.88;2.90;;;;;;;11.17;100.00;101787.69;4948252;28;20047;-74
2021/10/15 08:19:36;;;;;;;6.53;1.83;;;;;;;11.31;100.00;101798.09;4951892;28;20058;-74
2021/10/15 08:22:05;;;;;;;17.17;2.13;;;;;;;11.40;100.00;101785.41;4945536;28;20057;-69
2021/10/15 08:24:33;;;;;;;9.70;2.53;;;;;;;11.54;100.00;101794.94;4948389;28;20079;-69
2021/10/15 08:27:04;;;;;;;6.68;1.80;;;;;;;11.63;100.00;101797.44;4944234;28;20085;-70
2021/10/15 08:29:37;;;;;;;10.27;1.98;;;;;;;11.84;100.00;101787.19;4947129;28;20175;-70
2021/10/15 08:32:06;;;;;;;7.05;1.77;;;;;;;11.91;100.00;101811.09;4947433;28;20094;-70
2021/10/15 08:34:34;;;;;;;6.88;1.70;;;;;;;11.89;100.00;101809.34;4952179;28;20061;-70
2021/10/15 08:37:03;;;;;;;7.97;1.75;;;;;;;11.89;100.00;101820.91;4946436;28;20051;-71
2021/10/15 08:39:31;;;;;;;12.20;1.98;;;;;;;11.80;99.66;101820.22;4948879;28;20555;-71
2021/10/15 08:42:00;;;;;;;9.32;1.65;;;;;;;11.81;98.03;101822.00;4948683;28;20423;-70
2021/10/15 08:44:36;;;;;;;10.50;1.80;;;;;;;11.87;98.34;101825.44;4941131;28;20204;-70
2021/10/15 08:47:05;;;;;;;11.95;2.72;;;;;;;11.92;98.13;101820.88;4946942;28;20053;-71
2021/10/15 08:49:53;;;;;;;11.35;2.55;;;;;;;11.94;97.17;101831.56;4949884;28;20047;-71
2021/10/15 08:52:21;;;;;;;10.23;2.10;;;;;;;11.98;97.10;101833.25;4933641;28;20050;-71
2021/10/15 08:54:57;;;;;;;7.50;1.90;;;;;;;11.98;94.44;101838.59;4952990;28;20055;-71
2021/10/15 08:57:27;;;;;;;11.02;2.22;;;;;;;12.18;93.95;101843.50;4951083;28;20060;-70
2021/10/15 08:59:57;;;;;;;4.68;1.42;;;;;;;12.30;92.25;101845.00;4949969;28;20051;-70
2021/10/15 09:02:26;;;;;;;14.25;2.50;;;;;;;12.37;91.88;101848.44;4948271;28;20213;-69
2021/10/15 09:04:57;;;;;;;10.85;2.40;;;;;;;12.30;90.35;101851.22;4948178;28;20090;-74
2021/10/15 09:07:26;;;;;;;10.43;2.20;;;;;;;12.20;89.91;101856.84;4951592;28;20043;-74
2021/10/15 09:10:09;;;;;;;8.55;1.75;;;;;;;12.14;89.26;101866.78;4950641;28;20485;-76
2021/10/15 09:12:44;;;;;;;8.30;2.33;;;;;;;12.14;89.28;101873.94;4946515;28;20043;-75
2021/10/15 09:15:16;;;;;;;13.57;2.60;;;;;;;12.23;85.31;101867.47;4950314;28;20111;-73
2021/10/15 09:17:52;;;;;;;8.43;2.10;;;;;;;12.15;84.88;101878.34;4948159;28;20051;-74
2021/10/15 09:20:28;;;;;;;13.38;2.72;;;;;;;12.08;81.41;101877.59;4950544;28;20420;-74
2021/10/15 09:23:09;;;;;;;7.93;1.90;;;;;;;12.41;80.14;101869.75;4946292;28;20098;-73
2021/10/15 09:25:42;;;;;;;10.68;2.00;;;;;;;12.63;77.77;101870.13;4948538;28;20154;-73
2021/10/15 09:28:19;;;;;;;7.85;1.80;;;;;;;12.66;72.16;101872.69;4950125;28;20446;-72
2021/10/15 09:30:51;;;;;;;6.10;1.50;;;;;;;12.83;71.51;101872.28;4949777;28;20157;-75
2021/10/15 09:33:20;;;;;;;5.20;1.55;;;;;;;12.97;72.38;101877.28;4953073;28;20086;-72
2021/10/15 09:35:48;;;;;;;7.47;1.85;;;;;;;13.07;71.15;101885.97;4949044;28;20138;-73
2021/10/15 09:38:16;;;;;;;8.80;1.77;;;;;;;13.33;70.76;101885.34;4949382;28;20063;-73
2021/10/15 09:40:48;;;;;;;5.57;2.33;;;;;;;13.24;68.26;101886.41;4945302;28;20086;-72
2021/10/15 09:43:17;;;;;;;9.30;2.05;;;;;;;13.25;68.13;101885.50;4948304;28;20085;-70
2021/10/15 09:45:47;;;;;;;8.82;1.50;;;;;;;13.48;68.33;101889.38;4948421;28;20141;-69
2021/10/15 09:48:22;;;;;;;5.85;1.98;;;;;;;13.67;68.79;101892.41;4951193;28;20043;-69
2021/10/15 09:51:15;;;;;;;6.38;1.90;;;;;;;14.05;69.17;101890.44;4949690;28;20055;-69
2021/10/15 09:54:11;;;;;;;9.63;2.33;;;;;;;13.98;66.05;101894.25;4946958;28;20051;-72
2021/10/15 09:57:04;;;;;;;9.23;2.10;;;;;;;13.45;68.24;101901.06;4952771;28;20624;-68
2021/10/15 09:59:42;;;;;;;6.88;1.90;;;;;;;13.33;69.48;101901.41;4946109;28;20047;-71
2021/10/15 10:02:11;;;;;;;8.68;2.20;;;;;;;13.64;68.84;101909.47;4947280;28;20051;-69
2021/10/15 10:04:43;;;;;;;8.35;1.90;;;;;;;13.55;68.83;101908.84;4948552;28;20902;-69
2021/10/15 10:07:12;;;;;;;9.38;1.80;;;;;;;13.63;68.10;101912.22;4946197;28;20442;-69
2021/10/15 10:09:40;;;;;;;7.28;2.03;;;;;;;13.37;68.52;101911.13;4947246;28;20500;-69
2021/10/15 10:12:08;;;;;;;8.02;1.70;;;;;;;13.41;68.41;101914.59;4942501;28;20062;-68
2021/10/15 10:14:36;;;;;;;8.40;1.67;;;;;;;14.04;67.36;101911.94;4952304;28;21027;-68
2021/10/15 10:17:06;;;;;;;10.40;1.88;;;;;;;14.06;65.32;101912.78;4948748;28;20464;-70
2021/10/15 10:19:38;;;;;;;11.35;1.85;;;;;;;14.36;66.16;101910.97;4949937;28;20046;-70
2021/10/15 10:22:08;;;;;;;8.05;2.03;;;;;;;13.96;66.42;101913.06;4948370;28;20439;-70
2021/10/15 10:24:42;;;;;;;10.55;2.00;;;;;;;13.73;64.50;101918.19;4950849;28;20050;-70
2021/10/15 10:27:10;;;;;;;13.40;2.20;;;;;;;14.04;66.96;101925.38;4949375;28;20149;-70
2021/10/15 10:29:53;;;;;;;7.60;1.77;;;;;;;14.57;67.19;101923.75;4947493;28;20106;-69
2021/10/15 10:32:24;;;;;;;6.55;1.60;;;;;;;14.82;66.04;101922.97;4950103;28;20047;-69
2021/10/15 10:34:53;;;;;;;8.77;2.00;;;;;;;14.89;66.02;101918.28;4947658;28;20125;-69
2021/10/15 10:37:23;;;;;;;6.05;1.70;;;;;;;14.67;65.48;101920.78;4942242;28;20058;-69
2021/10/15 10:40:09;;;;;;;9.23;1.77;;;;;;;14.10;64.14;101931.44;4951442;28;20379;-69
2021/10/15 10:43:02;;;;;;;10.18;1.45;;;;;;;14.59;64.82;101922.81;4947177;28;20051;-68
2021/10/15 10:45:30;;;;;;;8.82;1.63;;;;;;;14.96;64.14;101930.56;4946104;28;20058;-68
2021/10/15 10:48:05;;;;;;;4.90;1.63;;;;;;;14.78;64.87;101933.84;4948407;28;20117;-69
2021/10/15 10:50:34;;;;;;;9.77;2.65;;;;;;;14.53;65.90;101930.13;4946662;28;20058;-69
2021/10/15 10:53:10;;;;;;;7.07;1.65;;;;;;;14.37;67.41;101944.97;4944595;28;20578;-69
2021/10/15 10:55:42;;;;;;;8.90;2.42;;;;;;;14.38;66.87;101952.06;4951062;28;20661;-69
2021/10/15 10:58:33;;;;;;;8.02;2.03;;;;;;;14.15;66.44;101959.03;4949458;28;20456;-69
2021/10/15 11:01:25;;;;;;;9.10;1.60;;;;;;;14.17;64.87;101964.34;4946364;28;20059;-69
2021/10/15 11:04:27;;;;;;;6.53;1.70;;;;;;;14.80;63.36;101965.13;4948109;28;20599;-70
2021/10/15 11:06:57;;;;;;;8.50;1.80;;;;;;;14.72;63.36;101959.13;4946203;28;20105;-69
2021/10/15 11:09:36;;;;;;;7.63;2.08;;;;;;;15.02;62.79;101962.63;4948668;28;20815;-69
2021/10/15 11:12:04;;;;;;;7.82;1.90;;;;;;;15.18;62.49;101963.00;4945262;28;20492;-69
2021/10/15 11:14:49;;;;;;;7.22;1.80;;;;;;;15.11;61.45;101964.13;4946479;28;20058;-69
2021/10/15 11:17:19;;;;;;;8.55;1.80;;;;;;;15.27;61.63;101972.56;4948331;28;20074;-68
2021/10/15 11:19:47;;;;;;;7.32;2.17;;;;;;;15.09;58.94;101969.56;4952289;28;20097;-69
2021/10/15 11:22:20;;;;;;;5.90;1.80;;;;;;;15.01;59.13;101979.69;4947309;28;20054;-69
2021/10/15 11:24:59;;;;;;;10.77;3.25;;;;;;;14.99;59.13;101984.22;4946401;28;20097;-69
2021/10/15 11:27:26;;;;;;;7.80;1.75;;;;;;;14.51;60.11;101980.31;4950386;28;20049;-69
2021/10/15 11:29:57;;;;;;;12.35;2.28;;;;;;;14.31;62.01;101994.34;4946637;28;20046;-69
2021/10/15 11:32:33;;;;;;;12.25;2.03;;;;;;;14.43;61.06;101989.53;4946279;28;20467;-70
2021/10/15 11:35:16;;;;;;;9.63;2.03;;;;;;;15.12;58.55;101988.28;4946647;28;20055;-68
2021/10/15 11:37:54;;;;;;;12.13;2.35;;;;;;;15.35;57.45;101991.13;4948420;28;20543;-68
2021/10/15 11:40:27;;;;;;;7.32;2.28;;;;;;;16.28;57.41;101992.31;4947935;28;20268;-68
2021/10/15 11:43:06;;;;;;;11.30;2.17;;;;;;;15.73;56.83;101992.47;4950096;28;20371;-68
2021/10/15 11:46:01;;;;;;;7.78;2.00;;;;;;;14.85;59.39;102003.50;4947547;28;20130;-68
2021/10/15 11:48:34;;;;;;;12.88;2.50;;;;;;;14.40;61.79;102009.28;4948159;28;20069;-68
2021/10/15 11:51:04;;;;;;;12.63;2.40;;;;;;;14.07;62.53;102019.22;4954633;28;20459;-68